Dickinson Theodore Roosevelt Regional Airport Dickinson US
ICAO: KDIK
IATA: DIK
Category: Medium
Scheduled Services: No

Elevation: 2592 ft
TransAlt. 18000 ft.

Airport Communications:
MINNEAPOLIS CNTR:124.25
GRAND FORKS RDO:122.2
CTAF/UNICOM:123

KDIK Zoom In..

If you have problems with the map follow the link
https://www.worldairports.se/pages/airport.php?
ICAO=KDIK

Runways:

(A) RW 07 length 4699 ft width 75 ft
---- / hdg 70

(B) RW 14 length 6399 ft width 100 ft
---- / hdg 140

(C) RW 25 length 4699 ft width 75 ft
---- / hdg 250

(D) RW 32 length 6399 ft width 100 ft
ILS 108.30 / hdg 320

Location; KDIK
Day. 23 / Time. 17.56 Zulu
* Altimeter: 30.21
* Temperature: 13° c. 55.4°f.
* Wind from: 140° Speed 22 kn with Gusts up to 29 kn.
Dewpoint: -04° c.
Visibility: 10 Statute Miles.
Clouds: Clear (automated report).

KDIK 231756Z AUTO 14022G29KT 10SM CLR 13/M04 A3021 RMK AO2 PK WND 15029/1756 SLP244 T01331039 10133 21033 58015


Wind From 140°
Speed 22 kn.

 
 
jpsmedia.com for Web Design worldairports.se 2018   terms of use